createdAt,value
2017-10-17T00:00:25.107Z,11.37
2017-10-17T00:05:28.200Z,11.60
2017-10-17T00:10:30.960Z,10.67
2017-10-17T00:15:33.990Z,10.80
2017-10-17T00:20:37.078Z,10.90
2017-10-17T00:25:40.109Z,10.23
2017-10-17T00:30:44.678Z,10.70
2017-10-17T00:35:51.348Z,12.10
2017-10-17T00:40:54.461Z,11.23
2017-10-17T00:46:02.085Z,11.43
2017-10-17T00:51:10.102Z,13.27
2017-10-17T00:56:12.874Z,11.60
2017-10-17T01:01:15.876Z,12.13
2017-10-17T01:06:19.496Z,12.43
2017-10-17T01:11:22.528Z,11.40
2017-10-17T01:16:26.224Z,11.80
2017-10-17T01:21:29.249Z,12.07
2017-10-17T01:26:32.324Z,12.77
2017-10-17T01:31:34.510Z,14.47
2017-10-17T01:36:39.299Z,11.40
2017-10-17T01:41:42.132Z,13.43
2017-10-17T01:46:49.787Z,12.93
2017-10-17T01:51:59.286Z,12.80
2017-10-17T01:57:02.382Z,13.40
2017-10-17T02:02:04.849Z,13.13
2017-10-17T02:07:07.376Z,14.00
2017-10-17T02:12:10.448Z,15.07
2017-10-17T02:17:13.453Z,14.80
2017-10-17T02:22:17.435Z,14.60
2017-10-17T02:27:22.082Z,13.53
2017-10-17T02:32:24.123Z,14.17
2017-10-17T02:37:27.912Z,15.13
2017-10-17T02:42:30.755Z,13.97
2017-10-17T02:47:36.196Z,13.70
2017-10-17T02:52:42.991Z,14.90
2017-10-17T02:57:46.684Z,14.03
2017-10-17T03:02:49.805Z,14.00
2017-10-17T03:07:52.568Z,13.10
2017-10-17T03:12:55.579Z,13.70
2017-10-17T03:18:02.538Z,13.57
2017-10-17T03:23:18.087Z,13.80
2017-10-17T03:28:27.259Z,14.07
2017-10-17T03:33:30.121Z,14.20
2017-10-17T03:38:42.864Z,13.47
2017-10-17T03:49:38.584Z,14.93
2017-10-17T03:54:43.437Z,12.87
2017-10-17T03:59:50.306Z,14.07
2017-10-17T04:11:12.996Z,13.50
2017-10-17T04:16:34.193Z,12.33
2017-10-17T04:27:20.487Z,13.77
2017-10-17T04:32:22.548Z,12.47
2017-10-17T04:37:40.495Z,13.40
2017-10-17T04:43:03.544Z,13.33
2017-10-17T04:48:33.316Z,13.20
2017-10-17T04:59:58.280Z,15.40
2017-10-17T05:05:14.120Z,14.40
2017-10-17T05:10:24.871Z,14.20
2017-10-17T05:15:27.880Z,15.03
2017-10-17T05:20:49.641Z,15.87
2017-10-17T05:25:51.692Z,15.40
2017-10-17T05:31:11.440Z,14.10
2017-10-17T05:36:14.333Z,14.80
2017-10-17T05:41:17.212Z,15.37
2017-10-17T05:46:19.315Z,15.30
2017-10-17T05:51:25.580Z,15.60
2017-10-17T05:56:27.510Z,15.87
2017-10-17T06:01:29.507Z,15.70
2017-10-17T06:06:31.441Z,15.97
2017-10-17T06:11:33.453Z,16.13
2017-10-17T06:16:35.468Z,18.03
2017-10-17T06:21:38.145Z,16.13
2017-10-17T06:26:40.051Z,17.30
2017-10-17T06:31:41.987Z,17.30
2017-10-17T06:36:43.927Z,17.30
2017-10-17T06:41:45.948Z,19.30
2017-10-17T06:46:47.999Z,18.00
2017-10-17T06:51:50.053Z,18.77
2017-10-17T06:56:52.139Z,20.13
2017-10-17T07:01:54.816Z,20.43
2017-10-17T07:06:56.877Z,20.70
2017-10-17T07:11:58.781Z,20.03
2017-10-17T07:17:00.815Z,20.37
2017-10-17T07:22:02.792Z,18.90
2017-10-17T07:27:04.841Z,18.17
2017-10-17T07:32:06.860Z,19.60
2017-10-17T07:37:08.868Z,18.60
2017-10-17T07:42:10.845Z,18.60
2017-10-17T07:47:12.805Z,17.50
2017-10-17T07:52:15.721Z,16.77
2017-10-17T07:57:18.457Z,17.60
2017-10-17T08:02:20.475Z,15.43
2017-10-17T08:07:22.537Z,16.43
2017-10-17T08:12:25.208Z,15.57
2017-10-17T08:17:31.171Z,14.63
2017-10-17T08:22:33.111Z,16.20
2017-10-17T08:27:36.947Z,15.43
2017-10-17T08:32:39.248Z,15.97
2017-10-17T08:37:42.581Z,14.93
2017-10-17T08:42:44.799Z,15.53
2017-10-17T08:47:46.836Z,16.00
2017-10-17T08:52:52.190Z,14.57
2017-10-17T08:58:01.011Z,15.33
2017-10-17T09:03:03.327Z,15.37
2017-10-17T09:08:05.276Z,13.60
2017-10-17T09:13:07.221Z,13.93
2017-10-17T09:18:09.191Z,12.83
2017-10-17T09:23:11.108Z,14.53
2017-10-17T09:28:13.025Z,12.70
2017-10-17T09:33:14.916Z,14.43
2017-10-17T09:38:16.897Z,12.70
2017-10-17T09:43:18.805Z,12.00
2017-10-17T09:48:20.750Z,12.90
2017-10-17T09:53:22.715Z,12.37
2017-10-17T09:58:24.648Z,11.20
2017-10-17T10:03:26.561Z,10.23
2017-10-17T10:08:28.539Z,10.77
2017-10-17T10:13:30.448Z,10.03
2017-10-17T10:18:32.464Z,10.07
2017-10-17T10:23:34.378Z,10.53
2017-10-17T10:28:36.306Z,10.40
2017-10-17T10:33:38.966Z,11.03
2017-10-17T10:38:41.026Z,10.63
2017-10-17T10:43:42.952Z,10.40
2017-10-17T10:48:44.989Z,11.80
2017-10-17T10:53:46.943Z,9.83
2017-10-17T10:58:49.086Z,10.33
2017-10-17T11:03:51.037Z,11.23
2017-10-17T11:08:53.023Z,11.53
2017-10-17T11:13:54.943Z,10.97
2017-10-17T11:18:56.846Z,11.67
2017-10-17T11:23:58.759Z,12.37
2017-10-17T11:29:00.770Z,11.80
2017-10-17T11:34:02.808Z,14.50
2017-10-17T11:39:04.771Z,15.40
2017-10-17T11:44:11.524Z,15.40
2017-10-17T11:49:14.512Z,17.50
2017-10-17T11:54:16.484Z,16.10
2017-10-17T11:59:18.460Z,16.53
2017-10-17T12:04:21.839Z,17.33
2017-10-17T12:09:28.005Z,17.83
2017-10-17T12:14:36.033Z,17.30
2017-10-17T12:19:41.936Z,17.33
2017-10-17T12:24:46.119Z,16.43
2017-10-17T12:29:49.629Z,16.53
2017-10-17T12:34:53.683Z,16.67
2017-10-17T12:39:57.714Z,18.17
2017-10-17T12:45:07.615Z,20.00
2017-10-17T12:50:11.501Z,17.50
2017-10-17T12:55:14.801Z,18.60
2017-10-17T13:00:17.521Z,17.83
2017-10-17T13:05:20.151Z,19.00
2017-10-17T13:10:23.799Z,19.43
2017-10-17T13:15:28.189Z,18.57
2017-10-17T13:20:31.030Z,20.40
2017-10-17T13:25:34.192Z,21.70
2017-10-17T13:30:37.674Z,21.10
2017-10-17T13:35:40.616Z,20.47
2017-10-17T13:40:44.670Z,20.50
2017-10-17T13:45:47.538Z,21.73
2017-10-17T13:50:52.052Z,23.10
2017-10-17T13:55:54.857Z,22.00
2017-10-17T14:00:57.564Z,22.00
2017-10-17T14:06:00.756Z,23.77
2017-10-17T14:11:07.827Z,24.23
2017-10-17T14:16:10.239Z,24.10
2017-10-17T14:21:12.306Z,25.87
2017-10-17T14:26:14.364Z,27.10
2017-10-17T14:31:16.991Z,25.30
2017-10-17T14:36:19.664Z,28.20
2017-10-17T14:41:23.107Z,27.63
2017-10-17T14:46:28.555Z,30.90
2017-10-17T14:51:31.574Z,30.23
2017-10-17T14:56:34.267Z,31.67
2017-10-17T15:01:36.910Z,32.23
2017-10-17T15:06:40.136Z,33.87
2017-10-17T15:11:47.852Z,35.97
2017-10-17T15:16:59.317Z,35.87
2017-10-17T15:22:05.410Z,39.60
2017-10-17T15:27:09.329Z,35.90
2017-10-17T15:32:12.622Z,36.10
2017-10-17T15:37:15.734Z,34.97
2017-10-17T15:42:18.736Z,38.53
2017-10-17T15:47:24.033Z,36.00
2017-10-17T15:52:27.728Z,37.97
2017-10-17T15:57:30.475Z,36.50
2017-10-17T16:02:33.124Z,38.27
2017-10-17T16:07:36.011Z,39.27
2017-10-17T16:12:39.059Z,37.23
2017-10-17T16:17:44.583Z,39.70
2017-10-17T16:22:50.175Z,40.10
2017-10-17T16:27:53.267Z,38.20
2017-10-17T16:32:57.784Z,39.40
2017-10-17T16:38:02.178Z,38.90
2017-10-17T16:43:05.279Z,37.70
2017-10-17T16:48:08.144Z,37.47
2017-10-17T16:53:11.351Z,40.00
2017-10-17T16:58:18.956Z,40.10
2017-10-17T17:03:23.259Z,38.03
2017-10-17T17:08:25.948Z,37.17
2017-10-17T17:13:29.770Z,40.50
2017-10-17T17:18:35.032Z,40.80
2017-10-17T17:23:38.009Z,41.37
2017-10-17T17:28:40.955Z,42.40
2017-10-17T17:33:44.473Z,46.47
2017-10-17T17:38:47.286Z,40.53
2017-10-17T17:43:50.516Z,39.90
2017-10-17T17:48:54.152Z,40.20
2017-10-17T17:53:58.861Z,42.30
2017-10-17T17:59:02.068Z,42.93
2017-10-17T18:04:05.452Z,40.07
2017-10-17T18:09:09.704Z,43.70
2017-10-17T18:14:14.410Z,41.40
2017-10-17T18:19:18.831Z,43.10
2017-10-17T18:24:23.610Z,43.03
2017-10-17T18:29:27.452Z,42.93
2017-10-17T18:34:31.902Z,43.60
2017-10-17T18:39:40.714Z,44.17
2017-10-17T18:44:48.602Z,53.40
2017-10-17T18:49:53.569Z,45.63
2017-10-17T18:54:57.454Z,47.37
2017-10-17T19:00:02.323Z,49.23
2017-10-17T19:05:08.306Z,47.30
2017-10-17T19:10:11.247Z,45.93
2017-10-17T19:15:14.096Z,44.90
2017-10-17T19:20:17.285Z,50.83
2017-10-17T19:25:20.182Z,49.80
2017-10-17T19:30:23.470Z,51.10
2017-10-17T19:35:28.144Z,44.13
2017-10-17T19:40:35.341Z,41.50
2017-10-17T19:45:38.638Z,49.33
2017-10-17T19:50:41.589Z,46.70
2017-10-17T19:55:46.607Z,48.27
2017-10-17T20:00:50.175Z,48.57
2017-10-17T20:05:53.618Z,49.20
2017-10-17T20:10:57.180Z,48.63
2017-10-17T20:16:00.134Z,49.97
2017-10-17T20:21:03.088Z,54.43
2017-10-17T20:26:07.958Z,49.70
2017-10-17T20:31:12.598Z,46.87
2017-10-17T20:36:16.470Z,52.07
2017-10-17T20:41:19.367Z,46.30
2017-10-17T20:46:22.165Z,45.03
2017-10-17T20:51:25.251Z,44.90
2017-10-17T20:56:27.203Z,42.83
2017-10-17T21:01:33.364Z,45.17
2017-10-17T21:06:36.058Z,45.33
2017-10-17T21:11:38.823Z,45.20
2017-10-17T21:16:41.686Z,44.60
2017-10-17T21:21:44.612Z,43.63
2017-10-17T21:26:48.309Z,41.97
2017-10-17T21:31:51.240Z,44.50
2017-10-17T21:36:53.986Z,41.60
2017-10-17T21:41:57.936Z,41.23
2017-10-17T21:47:01.618Z,42.30
2017-10-17T21:52:04.306Z,42.40
2017-10-17T21:57:07.410Z,46.80
2017-10-17T22:02:11.462Z,49.47
2017-10-17T22:07:14.477Z,42.97
2017-10-17T22:12:17.380Z,46.73
2017-10-17T22:17:20.836Z,47.93
2017-10-17T22:22:23.669Z,44.27
2017-10-17T22:27:26.523Z,54.60
2017-10-17T22:32:29.349Z,46.10
2017-10-17T22:37:33.132Z,45.47
2017-10-17T22:42:36.868Z,47.40
2017-10-17T22:47:39.851Z,44.03
2017-10-17T22:52:42.423Z,43.93
2017-10-17T22:57:46.180Z,41.80
2017-10-17T23:02:48.878Z,39.87
2017-10-17T23:07:51.743Z,39.43
2017-10-17T23:12:54.551Z,37.33
2017-10-17T23:18:15.317Z,34.30
2017-10-17T23:23:18.379Z,40.57
2017-10-17T23:33:31.420Z,35.37
2017-10-17T23:38:34.841Z,33.47
2017-10-17T23:43:38.429Z,34.70
2017-10-17T23:48:41.204Z,30.63
2017-10-17T23:53:44.108Z,36.93
2017-10-17T23:58:47.028Z,34.77
